sensor_id;sensor_type;location;lat;lon;timestamp;P1;durP1;ratioP1;P2;durP2;ratioP2
7150;SDS011;3617;48.836;9.172;2022-12-18T00:01:26;46.43;;;20.30;;
7150;SDS011;3617;48.836;9.172;2022-12-18T00:03:52;46.97;;;18.63;;
7150;SDS011;3617;48.836;9.172;2022-12-18T00:06:19;39.03;;;17.10;;
7150;SDS011;3617;48.836;9.172;2022-12-18T00:08:46;41.23;;;18.90;;
7150;SDS011;3617;48.836;9.172;2022-12-18T00:11:13;39.20;;;16.70;;
7150;SDS011;3617;48.836;9.172;2022-12-18T00:13:40;39.37;;;17.60;;
7150;SDS011;3617;48.836;9.172;2022-12-18T00:16:07;34.87;;;17.07;;
7150;SDS011;3617;48.836;9.172;2022-12-18T00:18:34;39.87;;;17.13;;
7150;SDS011;3617;48.836;9.172;2022-12-18T00:21:00;40.27;;;17.67;;
7150;SDS011;3617;48.836;9.172;2022-12-18T00:23:27;34.03;;;17.53;;
7150;SDS011;3617;48.836;9.172;2022-12-18T00:25:53;42.97;;;18.67;;
7150;SDS011;3617;48.836;9.172;2022-12-18T00:28:19;33.87;;;16.17;;
7150;SDS011;3617;48.836;9.172;2022-12-18T00:30:45;38.87;;;19.03;;
7150;SDS011;3617;48.836;9.172;2022-12-18T00:33:11;48.67;;;19.30;;
7150;SDS011;3617;48.836;9.172;2022-12-18T00:35:37;36.57;;;17.90;;
7150;SDS011;3617;48.836;9.172;2022-12-18T00:38:03;48.47;;;18.37;;
7150;SDS011;3617;48.836;9.172;2022-12-18T00:40:31;40.43;;;16.80;;
7150;SDS011;3617;48.836;9.172;2022-12-18T00:42:57;35.73;;;17.57;;
7150;SDS011;3617;48.836;9.172;2022-12-18T00:45:27;40.93;;;18.40;;
7150;SDS011;3617;48.836;9.172;2022-12-18T00:47:53;50.00;;;18.87;;
7150;SDS011;3617;48.836;9.172;2022-12-18T00:50:19;38.00;;;17.60;;
7150;SDS011;3617;48.836;9.172;2022-12-18T00:52:45;47.93;;;17.70;;
7150;SDS011;3617;48.836;9.172;2022-12-18T00:55:11;48.30;;;18.30;;
7150;SDS011;3617;48.836;9.172;2022-12-18T00:57:38;38.67;;;17.93;;
7150;SDS011;3617;48.836;9.172;2022-12-18T01:00:05;38.30;;;17.30;;
7150;SDS011;3617;48.836;9.172;2022-12-18T01:02:31;34.70;;;18.17;;
7150;SDS011;3617;48.836;9.172;2022-12-18T01:04:57;45.30;;;18.13;;
7150;SDS011;3617;48.836;9.172;2022-12-18T01:07:23;38.77;;;17.70;;
7150;SDS011;3617;48.836;9.172;2022-12-18T01:09:49;36.57;;;16.43;;
7150;SDS011;3617;48.836;9.172;2022-12-18T01:12:15;44.83;;;18.60;;
7150;SDS011;3617;48.836;9.172;2022-12-18T01:14:41;33.17;;;16.23;;
7150;SDS011;3617;48.836;9.172;2022-12-18T01:17:07;45.00;;;17.83;;
7150;SDS011;3617;48.836;9.172;2022-12-18T01:19:33;42.53;;;16.67;;
7150;SDS011;3617;48.836;9.172;2022-12-18T01:21:59;42.77;;;16.77;;
7150;SDS011;3617;48.836;9.172;2022-12-18T01:24:25;42.93;;;17.77;;
7150;SDS011;3617;48.836;9.172;2022-12-18T01:26:51;43.00;;;18.23;;
7150;SDS011;3617;48.836;9.172;2022-12-18T01:29:17;48.73;;;16.00;;
7150;SDS011;3617;48.836;9.172;2022-12-18T01:31:44;37.97;;;17.57;;
7150;SDS011;3617;48.836;9.172;2022-12-18T01:34:10;37.33;;;16.47;;
7150;SDS011;3617;48.836;9.172;2022-12-18T01:36:36;40.87;;;17.53;;
7150;SDS011;3617;48.836;9.172;2022-12-18T01:39:04;28.00;;;15.83;;
7150;SDS011;3617;48.836;9.172;2022-12-18T01:41:32;38.67;;;17.20;;
7150;SDS011;3617;48.836;9.172;2022-12-18T01:47:15;46.23;;;17.60;;
7150;SDS011;3617;48.836;9.172;2022-12-18T01:49:43;42.30;;;17.37;;
7150;SDS011;3617;48.836;9.172;2022-12-18T01:52:09;33.03;;;16.67;;
7150;SDS011;3617;48.836;9.172;2022-12-18T01:54:35;39.53;;;16.53;;
7150;SDS011;3617;48.836;9.172;2022-12-18T01:57:01;33.97;;;14.30;;
7150;SDS011;3617;48.836;9.172;2022-12-18T01:59:28;39.40;;;17.20;;
7150;SDS011;3617;48.836;9.172;2022-12-18T02:01:55;39.57;;;17.60;;
7150;SDS011;3617;48.836;9.172;2022-12-18T02:04:22;37.67;;;16.70;;
7150;SDS011;3617;48.836;9.172;2022-12-18T02:06:50;38.80;;;18.63;;
7150;SDS011;3617;48.836;9.172;2022-12-18T02:09:20;35.17;;;15.97;;
7150;SDS011;3617;48.836;9.172;2022-12-18T02:14:40;35.93;;;15.67;;
7150;SDS011;3617;48.836;9.172;2022-12-18T02:17:13;42.53;;;19.00;;
7150;SDS011;3617;48.836;9.172;2022-12-18T02:25:13;34.07;;;16.33;;
7150;SDS011;3617;48.836;9.172;2022-12-18T02:27:42;35.60;;;15.97;;
7150;SDS011;3617;48.836;9.172;2022-12-18T02:30:10;40.40;;;17.47;;
7150;SDS011;3617;48.836;9.172;2022-12-18T02:32:37;41.50;;;18.43;;
7150;SDS011;3617;48.836;9.172;2022-12-18T02:35:06;39.97;;;17.63;;
7150;SDS011;3617;48.836;9.172;2022-12-18T02:37:33;34.57;;;16.07;;
7150;SDS011;3617;48.836;9.172;2022-12-18T02:40:00;36.30;;;16.13;;
7150;SDS011;3617;48.836;9.172;2022-12-18T02:42:27;32.90;;;16.20;;
7150;SDS011;3617;48.836;9.172;2022-12-18T02:44:53;40.30;;;16.50;;
7150;SDS011;3617;48.836;9.172;2022-12-18T02:47:20;44.57;;;16.83;;
7150;SDS011;3617;48.836;9.172;2022-12-18T02:50:13;39.57;;;17.00;;
7150;SDS011;3617;48.836;9.172;2022-12-18T02:57:42;36.50;;;16.83;;
7150;SDS011;3617;48.836;9.172;2022-12-18T03:00:12;38.10;;;15.93;;
7150;SDS011;3617;48.836;9.172;2022-12-18T03:05:11;38.60;;;15.93;;
7150;SDS011;3617;48.836;9.172;2022-12-18T03:07:42;48.63;;;17.57;;
7150;SDS011;3617;48.836;9.172;2022-12-18T03:10:11;37.57;;;17.23;;
7150;SDS011;3617;48.836;9.172;2022-12-18T03:12:39;42.77;;;16.57;;
7150;SDS011;3617;48.836;9.172;2022-12-18T03:18:02;32.33;;;14.93;;
7150;SDS011;3617;48.836;9.172;2022-12-18T03:20:31;33.40;;;15.90;;
7150;SDS011;3617;48.836;9.172;2022-12-18T03:22:59;34.47;;;16.03;;
7150;SDS011;3617;48.836;9.172;2022-12-18T03:25:25;33.60;;;15.97;;
7150;SDS011;3617;48.836;9.172;2022-12-18T03:27:53;45.23;;;16.73;;
7150;SDS011;3617;48.836;9.172;2022-12-18T03:30:20;40.17;;;16.43;;
7150;SDS011;3617;48.836;9.172;2022-12-18T03:32:47;34.13;;;15.63;;
7150;SDS011;3617;48.836;9.172;2022-12-18T03:35:15;35.83;;;16.67;;
7150;SDS011;3617;48.836;9.172;2022-12-18T03:37:44;38.33;;;17.00;;
7150;SDS011;3617;48.836;9.172;2022-12-18T03:40:10;37.17;;;16.70;;
7150;SDS011;3617;48.836;9.172;2022-12-18T03:42:46;34.67;;;15.53;;
7150;SDS011;3617;48.836;9.172;2022-12-18T03:47:52;35.53;;;15.03;;
7150;SDS011;3617;48.836;9.172;2022-12-18T03:50:26;38.47;;;17.20;;
7150;SDS011;3617;48.836;9.172;2022-12-18T03:53:01;41.43;;;16.47;;
7150;SDS011;3617;48.836;9.172;2022-12-18T03:55:30;32.20;;;14.37;;
7150;SDS011;3617;48.836;9.172;2022-12-18T03:57:58;39.63;;;16.53;;
7150;SDS011;3617;48.836;9.172;2022-12-18T04:00:25;37.33;;;15.70;;
7150;SDS011;3617;48.836;9.172;2022-12-18T04:02:52;42.17;;;16.13;;
7150;SDS011;3617;48.836;9.172;2022-12-18T04:05:19;41.07;;;16.33;;
7150;SDS011;3617;48.836;9.172;2022-12-18T04:07:46;36.83;;;15.13;;
7150;SDS011;3617;48.836;9.172;2022-12-18T04:10:13;32.37;;;15.80;;
7150;SDS011;3617;48.836;9.172;2022-12-18T04:12:40;41.23;;;17.03;;
7150;SDS011;3617;48.836;9.172;2022-12-18T04:15:06;38.27;;;15.83;;
7150;SDS011;3617;48.836;9.172;2022-12-18T04:17:33;34.03;;;16.03;;
7150;SDS011;3617;48.836;9.172;2022-12-18T04:19:59;29.60;;;14.47;;
7150;SDS011;3617;48.836;9.172;2022-12-18T04:22:25;36.50;;;15.80;;
7150;SDS011;3617;48.836;9.172;2022-12-18T04:24:51;32.80;;;14.20;;
7150;SDS011;3617;48.836;9.172;2022-12-18T04:27:17;36.20;;;14.53;;
7150;SDS011;3617;48.836;9.172;2022-12-18T04:29:43;27.37;;;14.87;;
7150;SDS011;3617;48.836;9.172;2022-12-18T04:32:10;31.10;;;16.13;;
7150;SDS011;3617;48.836;9.172;2022-12-18T04:34:36;23.03;;;12.23;;
7150;SDS011;3617;48.836;9.172;2022-12-18T04:37:02;38.57;;;16.73;;
7150;SDS011;3617;48.836;9.172;2022-12-18T04:39:28;36.13;;;16.17;;
7150;SDS011;3617;48.836;9.172;2022-12-18T04:41:54;32.80;;;15.63;;
7150;SDS011;3617;48.836;9.172;2022-12-18T04:44:20;36.10;;;17.00;;
7150;SDS011;3617;48.836;9.172;2022-12-18T04:46:46;35.83;;;15.60;;
7150;SDS011;3617;48.836;9.172;2022-12-18T04:49:12;32.17;;;15.83;;
7150;SDS011;3617;48.836;9.172;2022-12-18T04:51:38;36.47;;;15.60;;
7150;SDS011;3617;48.836;9.172;2022-12-18T04:54:04;36.13;;;16.37;;
7150;SDS011;3617;48.836;9.172;2022-12-18T04:56:31;33.03;;;15.30;;
7150;SDS011;3617;48.836;9.172;2022-12-18T04:58:57;29.83;;;13.10;;
7150;SDS011;3617;48.836;9.172;2022-12-18T05:01:23;30.57;;;14.00;;
7150;SDS011;3617;48.836;9.172;2022-12-18T05:03:50;28.23;;;14.73;;
7150;SDS011;3617;48.836;9.172;2022-12-18T05:06:16;34.97;;;15.20;;
7150;SDS011;3617;48.836;9.172;2022-12-18T05:08:42;37.10;;;15.53;;
7150;SDS011;3617;48.836;9.172;2022-12-18T05:11:10;37.43;;;15.57;;
7150;SDS011;3617;48.836;9.172;2022-12-18T05:13:36;29.57;;;15.07;;
7150;SDS011;3617;48.836;9.172;2022-12-18T05:16:02;33.03;;;15.33;;
7150;SDS011;3617;48.836;9.172;2022-12-18T05:18:29;32.10;;;14.67;;
7150;SDS011;3617;48.836;9.172;2022-12-18T05:20:55;33.27;;;16.03;;
7150;SDS011;3617;48.836;9.172;2022-12-18T05:23:22;39.67;;;15.33;;
7150;SDS011;3617;48.836;9.172;2022-12-18T05:25:55;32.03;;;13.67;;
7150;SDS011;3617;48.836;9.172;2022-12-18T05:28:21;35.70;;;16.07;;
7150;SDS011;3617;48.836;9.172;2022-12-18T05:30:51;37.30;;;15.80;;
7150;SDS011;3617;48.836;9.172;2022-12-18T05:33:18;40.83;;;16.07;;
7150;SDS011;3617;48.836;9.172;2022-12-18T05:35:49;30.00;;;13.77;;
7150;SDS011;3617;48.836;9.172;2022-12-18T05:38:15;32.60;;;14.53;;
7150;SDS011;3617;48.836;9.172;2022-12-18T05:40:42;31.13;;;14.17;;
7150;SDS011;3617;48.836;9.172;2022-12-18T05:43:08;33.37;;;14.63;;
7150;SDS011;3617;48.836;9.172;2022-12-18T05:45:36;37.57;;;15.07;;
7150;SDS011;3617;48.836;9.172;2022-12-18T05:48:02;31.80;;;15.47;;
7150;SDS011;3617;48.836;9.172;2022-12-18T05:50:28;36.10;;;15.43;;
7150;SDS011;3617;48.836;9.172;2022-12-18T05:52:54;31.53;;;14.83;;
7150;SDS011;3617;48.836;9.172;2022-12-18T05:55:21;31.37;;;14.20;;
7150;SDS011;3617;48.836;9.172;2022-12-18T05:57:46;37.03;;;14.47;;
7150;SDS011;3617;48.836;9.172;2022-12-18T06:00:13;28.23;;;14.17;;
7150;SDS011;3617;48.836;9.172;2022-12-18T06:02:39;26.30;;;13.40;;
7150;SDS011;3617;48.836;9.172;2022-12-18T06:05:05;36.50;;;14.60;;
7150;SDS011;3617;48.836;9.172;2022-12-18T06:07:31;28.00;;;13.27;;
7150;SDS011;3617;48.836;9.172;2022-12-18T06:09:57;32.73;;;15.60;;
7150;SDS011;3617;48.836;9.172;2022-12-18T06:12:23;33.80;;;15.63;;
7150;SDS011;3617;48.836;9.172;2022-12-18T06:14:49;38.53;;;17.23;;
7150;SDS011;3617;48.836;9.172;2022-12-18T06:17:15;34.80;;;14.43;;
7150;SDS011;3617;48.836;9.172;2022-12-18T06:19:41;33.30;;;15.57;;
7150;SDS011;3617;48.836;9.172;2022-12-18T06:22:07;36.37;;;17.10;;
7150;SDS011;3617;48.836;9.172;2022-12-18T06:24:33;47.13;;;19.40;;
7150;SDS011;3617;48.836;9.172;2022-12-18T06:26:59;41.00;;;16.70;;
7150;SDS011;3617;48.836;9.172;2022-12-18T06:29:25;44.70;;;18.53;;
7150;SDS011;3617;48.836;9.172;2022-12-18T06:31:51;36.53;;;16.30;;
7150;SDS011;3617;48.836;9.172;2022-12-18T06:34:17;35.93;;;16.73;;
7150;SDS011;3617;48.836;9.172;2022-12-18T06:36:43;31.20;;;16.20;;
7150;SDS011;3617;48.836;9.172;2022-12-18T06:39:09;36.23;;;16.80;;
7150;SDS011;3617;48.836;9.172;2022-12-18T06:41:35;32.10;;;15.43;;
7150;SDS011;3617;48.836;9.172;2022-12-18T06:44:01;34.80;;;15.10;;
7150;SDS011;3617;48.836;9.172;2022-12-18T06:46:27;28.17;;;13.17;;
7150;SDS011;3617;48.836;9.172;2022-12-18T06:48:53;32.57;;;13.47;;
7150;SDS011;3617;48.836;9.172;2022-12-18T06:51:20;30.20;;;14.53;;
7150;SDS011;3617;48.836;9.172;2022-12-18T06:53:46;22.97;;;12.60;;
7150;SDS011;3617;48.836;9.172;2022-12-18T06:56:12;30.43;;;14.17;;
7150;SDS011;3617;48.836;9.172;2022-12-18T06:58:38;36.13;;;13.60;;
7150;SDS011;3617;48.836;9.172;2022-12-18T07:01:05;27.20;;;13.27;;
7150;SDS011;3617;48.836;9.172;2022-12-18T07:03:31;31.57;;;13.87;;
7150;SDS011;3617;48.836;9.172;2022-12-18T07:05:57;31.53;;;13.23;;
7150;SDS011;3617;48.836;9.172;2022-12-18T07:08:24;26.30;;;13.17;;
7150;SDS011;3617;48.836;9.172;2022-12-18T07:10:50;27.23;;;12.57;;
7150;SDS011;3617;48.836;9.172;2022-12-18T07:13:16;27.50;;;14.23;;
7150;SDS011;3617;48.836;9.172;2022-12-18T07:15:42;30.53;;;12.47;;
7150;SDS011;3617;48.836;9.172;2022-12-18T07:18:09;20.50;;;10.77;;
7150;SDS011;3617;48.836;9.172;2022-12-18T07:20:35;27.97;;;12.57;;
7150;SDS011;3617;48.836;9.172;2022-12-18T07:23:04;41.37;;;14.90;;
7150;SDS011;3617;48.836;9.172;2022-12-18T07:25:33;30.50;;;13.00;;
7150;SDS011;3617;48.836;9.172;2022-12-18T07:27:59;34.00;;;14.67;;
7150;SDS011;3617;48.836;9.172;2022-12-18T07:30:25;29.20;;;13.03;;
7150;SDS011;3617;48.836;9.172;2022-12-18T07:32:51;29.53;;;13.77;;
7150;SDS011;3617;48.836;9.172;2022-12-18T07:35:17;23.83;;;12.67;;
7150;SDS011;3617;48.836;9.172;2022-12-18T07:37:43;30.17;;;12.47;;
7150;SDS011;3617;48.836;9.172;2022-12-18T07:40:10;32.97;;;13.70;;
7150;SDS011;3617;48.836;9.172;2022-12-18T07:42:36;38.03;;;17.90;;
7150;SDS011;3617;48.836;9.172;2022-12-18T07:45:02;28.90;;;15.27;;
7150;SDS011;3617;48.836;9.172;2022-12-18T07:47:30;35.87;;;16.73;;
7150;SDS011;3617;48.836;9.172;2022-12-18T07:49:56;30.23;;;14.97;;
7150;SDS011;3617;48.836;9.172;2022-12-18T07:52:22;27.27;;;14.73;;
7150;SDS011;3617;48.836;9.172;2022-12-18T07:54:48;25.17;;;12.47;;
7150;SDS011;3617;48.836;9.172;2022-12-18T07:57:15;28.40;;;13.03;;
7150;SDS011;3617;48.836;9.172;2022-12-18T07:59:41;30.97;;;14.60;;
7150;SDS011;3617;48.836;9.172;2022-12-18T08:02:07;28.20;;;14.37;;
7150;SDS011;3617;48.836;9.172;2022-12-18T08:04:33;29.70;;;14.70;;
7150;SDS011;3617;48.836;9.172;2022-12-18T08:06:59;29.73;;;13.77;;
7150;SDS011;3617;48.836;9.172;2022-12-18T08:09:25;27.73;;;13.53;;
7150;SDS011;3617;48.836;9.172;2022-12-18T08:11:51;24.73;;;13.07;;
7150;SDS011;3617;48.836;9.172;2022-12-18T08:14:17;26.60;;;14.27;;
7150;SDS011;3617;48.836;9.172;2022-12-18T08:16:43;31.10;;;13.63;;
7150;SDS011;3617;48.836;9.172;2022-12-18T08:19:09;29.73;;;14.50;;
7150;SDS011;3617;48.836;9.172;2022-12-18T08:21:35;29.53;;;14.03;;
7150;SDS011;3617;48.836;9.172;2022-12-18T08:24:01;32.80;;;15.23;;
7150;SDS011;3617;48.836;9.172;2022-12-18T08:26:29;33.57;;;14.67;;
7150;SDS011;3617;48.836;9.172;2022-12-18T08:28:55;32.07;;;14.77;;
7150;SDS011;3617;48.836;9.172;2022-12-18T08:31:22;26.50;;;14.37;;
7150;SDS011;3617;48.836;9.172;2022-12-18T08:33:49;34.33;;;15.63;;
7150;SDS011;3617;48.836;9.172;2022-12-18T08:36:15;31.33;;;16.00;;
7150;SDS011;3617;48.836;9.172;2022-12-18T08:38:42;33.07;;;15.47;;
7150;SDS011;3617;48.836;9.172;2022-12-18T08:41:12;36.43;;;16.67;;
7150;SDS011;3617;48.836;9.172;2022-12-18T08:43:38;31.23;;;15.37;;
7150;SDS011;3617;48.836;9.172;2022-12-18T08:46:24;36.90;;;17.37;;
7150;SDS011;3617;48.836;9.172;2022-12-18T08:48:51;35.93;;;14.93;;
7150;SDS011;3617;48.836;9.172;2022-12-18T08:51:17;34.57;;;16.07;;
7150;SDS011;3617;48.836;9.172;2022-12-18T08:53:43;30.13;;;15.43;;
7150;SDS011;3617;48.836;9.172;2022-12-18T08:56:09;32.53;;;16.17;;
7150;SDS011;3617;48.836;9.172;2022-12-18T08:58:36;31.13;;;15.77;;
7150;SDS011;3617;48.836;9.172;2022-12-18T09:01:03;31.87;;;15.50;;
7150;SDS011;3617;48.836;9.172;2022-12-18T09:03:29;27.10;;;14.60;;
7150;SDS011;3617;48.836;9.172;2022-12-18T09:05:55;34.53;;;16.03;;
7150;SDS011;3617;48.836;9.172;2022-12-18T09:08:21;36.33;;;17.37;;
7150;SDS011;3617;48.836;9.172;2022-12-18T09:10:48;34.60;;;15.97;;
7150;SDS011;3617;48.836;9.172;2022-12-18T09:13:14;30.67;;;15.23;;
7150;SDS011;3617;48.836;9.172;2022-12-18T09:15:41;33.57;;;15.83;;
7150;SDS011;3617;48.836;9.172;2022-12-18T09:18:07;28.17;;;14.67;;
7150;SDS011;3617;48.836;9.172;2022-12-18T09:20:34;30.50;;;15.07;;
7150;SDS011;3617;48.836;9.172;2022-12-18T09:23:00;30.03;;;14.60;;
7150;SDS011;3617;48.836;9.172;2022-12-18T09:25:26;34.87;;;16.40;;
7150;SDS011;3617;48.836;9.172;2022-12-18T09:27:56;38.40;;;16.03;;
7150;SDS011;3617;48.836;9.172;2022-12-18T09:30:22;32.77;;;15.03;;
7150;SDS011;3617;48.836;9.172;2022-12-18T09:32:48;30.13;;;14.80;;
7150;SDS011;3617;48.836;9.172;2022-12-18T09:35:15;27.47;;;13.03;;
7150;SDS011;3617;48.836;9.172;2022-12-18T09:37:41;35.47;;;16.43;;
7150;SDS011;3617;48.836;9.172;2022-12-18T09:40:12;34.37;;;15.70;;
7150;SDS011;3617;48.836;9.172;2022-12-18T09:42:38;26.83;;;15.17;;
7150;SDS011;3617;48.836;9.172;2022-12-18T09:45:04;30.53;;;14.30;;
7150;SDS011;3617;48.836;9.172;2022-12-18T09:47:32;30.43;;;15.80;;
7150;SDS011;3617;48.836;9.172;2022-12-18T09:50:34;26.77;;;13.77;;
7150;SDS011;3617;48.836;9.172;2022-12-18T09:52:54;33.30;;;14.67;;
7150;SDS011;3617;48.836;9.172;2022-12-18T09:57:57;29.20;;;15.10;;
7150;SDS011;3617;48.836;9.172;2022-12-18T10:00:26;27.50;;;14.43;;
7150;SDS011;3617;48.836;9.172;2022-12-18T10:02:53;31.00;;;14.73;;
7150;SDS011;3617;48.836;9.172;2022-12-18T10:08:05;30.17;;;15.73;;
7150;SDS011;3617;48.836;9.172;2022-12-18T10:10:38;33.90;;;15.00;;
7150;SDS011;3617;48.836;9.172;2022-12-18T10:13:20;31.23;;;15.33;;
7150;SDS011;3617;48.836;9.172;2022-12-18T10:21:19;30.37;;;14.17;;
7150;SDS011;3617;48.836;9.172;2022-12-18T10:26:19;27.13;;;13.80;;
7150;SDS011;3617;48.836;9.172;2022-12-18T10:28:45;26.03;;;13.00;;
7150;SDS011;3617;48.836;9.172;2022-12-18T10:31:16;29.43;;;14.43;;
7150;SDS011;3617;48.836;9.172;2022-12-18T10:33:42;25.23;;;13.30;;
7150;SDS011;3617;48.836;9.172;2022-12-18T10:36:08;25.53;;;12.87;;
7150;SDS011;3617;48.836;9.172;2022-12-18T10:38:35;27.30;;;12.50;;
7150;SDS011;3617;48.836;9.172;2022-12-18T10:43:34;24.67;;;13.17;;
7150;SDS011;3617;48.836;9.172;2022-12-18T10:46:05;29.47;;;13.40;;
7150;SDS011;3617;48.836;9.172;2022-12-18T10:48:39;27.20;;;13.57;;
7150;SDS011;3617;48.836;9.172;2022-12-18T10:51:06;30.27;;;13.97;;
7150;SDS011;3617;48.836;9.172;2022-12-18T10:53:33;29.57;;;14.50;;
7150;SDS011;3617;48.836;9.172;2022-12-18T10:56:00;27.70;;;14.13;;
7150;SDS011;3617;48.836;9.172;2022-12-18T10:58:29;27.63;;;13.97;;
7150;SDS011;3617;48.836;9.172;2022-12-18T11:03:42;30.53;;;15.13;;
7150;SDS011;3617;48.836;9.172;2022-12-18T11:06:10;29.47;;;14.93;;
7150;SDS011;3617;48.836;9.172;2022-12-18T11:08:36;26.77;;;13.33;;
7150;SDS011;3617;48.836;9.172;2022-12-18T11:11:03;30.20;;;13.67;;
7150;SDS011;3617;48.836;9.172;2022-12-18T11:13:30;28.00;;;13.73;;
7150;SDS011;3617;48.836;9.172;2022-12-18T11:15:57;26.40;;;14.20;;
7150;SDS011;3617;48.836;9.172;2022-12-18T11:18:28;28.97;;;13.43;;
7150;SDS011;3617;48.836;9.172;2022-12-18T11:20:55;25.93;;;13.03;;
7150;SDS011;3617;48.836;9.172;2022-12-18T11:23:22;28.43;;;13.37;;
7150;SDS011;3617;48.836;9.172;2022-12-18T11:25:52;26.27;;;12.73;;
7150;SDS011;3617;48.836;9.172;2022-12-18T11:33:40;27.57;;;13.27;;
7150;SDS011;3617;48.836;9.172;2022-12-18T11:36:07;26.33;;;13.17;;
7150;SDS011;3617;48.836;9.172;2022-12-18T11:38:34;24.37;;;12.57;;
7150;SDS011;3617;48.836;9.172;2022-12-18T11:41:03;33.67;;;13.03;;
7150;SDS011;3617;48.836;9.172;2022-12-18T11:43:32;24.67;;;12.47;;
7150;SDS011;3617;48.836;9.172;2022-12-18T11:46:01;28.07;;;13.63;;
7150;SDS011;3617;48.836;9.172;2022-12-18T11:48:30;32.83;;;14.63;;
7150;SDS011;3617;48.836;9.172;2022-12-18T11:50:58;26.00;;;13.83;;
7150;SDS011;3617;48.836;9.172;2022-12-18T11:53:26;30.43;;;14.63;;
7150;SDS011;3617;48.836;9.172;2022-12-18T12:00:47;30.03;;;13.93;;
7150;SDS011;3617;48.836;9.172;2022-12-18T12:03:24;30.33;;;14.23;;
7150;SDS011;3617;48.836;9.172;2022-12-18T12:08:44;31.03;;;13.77;;
7150;SDS011;3617;48.836;9.172;2022-12-18T12:16:33;29.73;;;14.87;;
7150;SDS011;3617;48.836;9.172;2022-12-18T12:19:03;27.87;;;14.30;;
7150;SDS011;3617;48.836;9.172;2022-12-18T12:31:42;32.20;;;14.90;;
7150;SDS011;3617;48.836;9.172;2022-12-18T12:34:16;30.27;;;14.77;;
7150;SDS011;3617;48.836;9.172;2022-12-18T12:36:51;30.43;;;15.73;;
7150;SDS011;3617;48.836;9.172;2022-12-18T12:39:20;30.00;;;14.23;;
7150;SDS011;3617;48.836;9.172;2022-12-18T12:41:47;29.50;;;14.97;;
7150;SDS011;3617;48.836;9.172;2022-12-18T12:44:33;25.77;;;14.07;;
7150;SDS011;3617;48.836;9.172;2022-12-18T12:47:01;33.97;;;15.60;;
7150;SDS011;3617;48.836;9.172;2022-12-18T12:49:32;30.67;;;14.80;;
7150;SDS011;3617;48.836;9.172;2022-12-18T12:52:13;31.00;;;13.70;;
7150;SDS011;3617;48.836;9.172;2022-12-18T12:54:40;28.93;;;13.87;;
7150;SDS011;3617;48.836;9.172;2022-12-18T12:57:19;34.73;;;15.30;;
7150;SDS011;3617;48.836;9.172;2022-12-18T13:04:45;33.40;;;14.83;;
7150;SDS011;3617;48.836;9.172;2022-12-18T13:07:26;27.43;;;14.40;;
7150;SDS011;3617;48.836;9.172;2022-12-18T13:16:03;26.73;;;14.07;;
7150;SDS011;3617;48.836;9.172;2022-12-18T13:18:17;34.50;;;14.30;;
7150;SDS011;3617;48.836;9.172;2022-12-18T13:20:50;34.50;;;15.23;;
7150;SDS011;3617;48.836;9.172;2022-12-18T13:25:45;32.60;;;14.43;;
7150;SDS011;3617;48.836;9.172;2022-12-18T13:28:12;30.50;;;13.90;;
7150;SDS011;3617;48.836;9.172;2022-12-18T13:35:42;32.10;;;15.17;;
7150;SDS011;3617;48.836;9.172;2022-12-18T13:38:39;33.80;;;14.27;;
7150;SDS011;3617;48.836;9.172;2022-12-18T13:43:48;28.60;;;13.93;;
7150;SDS011;3617;48.836;9.172;2022-12-18T13:49:00;31.03;;;14.80;;
7150;SDS011;3617;48.836;9.172;2022-12-18T13:51:26;30.30;;;14.03;;
7150;SDS011;3617;48.836;9.172;2022-12-18T13:53:54;31.50;;;14.63;;
7150;SDS011;3617;48.836;9.172;2022-12-18T13:56:22;28.63;;;14.77;;
7150;SDS011;3617;48.836;9.172;2022-12-18T13:59:05;31.20;;;13.50;;
7150;SDS011;3617;48.836;9.172;2022-12-18T14:01:31;28.87;;;12.50;;
7150;SDS011;3617;48.836;9.172;2022-12-18T14:04:10;26.33;;;13.37;;
7150;SDS011;3617;48.836;9.172;2022-12-18T14:06:36;48.33;;;24.00;;
7150;SDS011;3617;48.836;9.172;2022-12-18T14:09:02;32.93;;;14.27;;
7150;SDS011;3617;48.836;9.172;2022-12-18T14:11:28;38.60;;;19.13;;
7150;SDS011;3617;48.836;9.172;2022-12-18T14:13:55;33.13;;;16.43;;
7150;SDS011;3617;48.836;9.172;2022-12-18T14:16:22;35.10;;;15.77;;
7150;SDS011;3617;48.836;9.172;2022-12-18T14:21:21;25.37;;;14.47;;
7150;SDS011;3617;48.836;9.172;2022-12-18T14:23:48;31.57;;;15.40;;
7150;SDS011;3617;48.836;9.172;2022-12-18T14:26:19;34.33;;;15.97;;
7150;SDS011;3617;48.836;9.172;2022-12-18T14:28:46;33.63;;;15.57;;
7150;SDS011;3617;48.836;9.172;2022-12-18T14:31:22;30.27;;;14.50;;
7150;SDS011;3617;48.836;9.172;2022-12-18T14:33:49;31.33;;;15.20;;
7150;SDS011;3617;48.836;9.172;2022-12-18T14:36:16;29.83;;;14.20;;
7150;SDS011;3617;48.836;9.172;2022-12-18T14:38:43;37.07;;;15.83;;
7150;SDS011;3617;48.836;9.172;2022-12-18T14:41:12;32.93;;;15.87;;
7150;SDS011;3617;48.836;9.172;2022-12-18T14:43:39;38.17;;;15.43;;
7150;SDS011;3617;48.836;9.172;2022-12-18T14:46:25;30.90;;;15.53;;
7150;SDS011;3617;48.836;9.172;2022-12-18T14:48:51;34.60;;;15.57;;
7150;SDS011;3617;48.836;9.172;2022-12-18T14:51:21;29.87;;;14.13;;
7150;SDS011;3617;48.836;9.172;2022-12-18T14:53:49;30.67;;;16.47;;
7150;SDS011;3617;48.836;9.172;2022-12-18T14:58:51;34.90;;;16.47;;
7150;SDS011;3617;48.836;9.172;2022-12-18T15:01:22;35.97;;;17.10;;
7150;SDS011;3617;48.836;9.172;2022-12-18T15:03:49;34.87;;;16.37;;
7150;SDS011;3617;48.836;9.172;2022-12-18T15:06:16;35.87;;;15.70;;
7150;SDS011;3617;48.836;9.172;2022-12-18T15:08:43;36.33;;;17.60;;
7150;SDS011;3617;48.836;9.172;2022-12-18T15:11:29;37.07;;;18.67;;
7150;SDS011;3617;48.836;9.172;2022-12-18T15:13:58;44.93;;;18.87;;
7150;SDS011;3617;48.836;9.172;2022-12-18T15:16:25;39.63;;;16.97;;
7150;SDS011;3617;48.836;9.172;2022-12-18T15:18:51;32.57;;;17.10;;
7150;SDS011;3617;48.836;9.172;2022-12-18T15:21:18;34.57;;;17.53;;
7150;SDS011;3617;48.836;9.172;2022-12-18T15:26:12;40.67;;;17.70;;
7150;SDS011;3617;48.836;9.172;2022-12-18T15:28:46;45.13;;;18.30;;
7150;SDS011;3617;48.836;9.172;2022-12-18T15:33:39;38.50;;;17.63;;
7150;SDS011;3617;48.836;9.172;2022-12-18T15:36:10;44.10;;;20.50;;
7150;SDS011;3617;48.836;9.172;2022-12-18T15:38:36;39.47;;;17.43;;
7150;SDS011;3617;48.836;9.172;2022-12-18T15:41:02;40.33;;;18.17;;
7150;SDS011;3617;48.836;9.172;2022-12-18T15:43:32;44.57;;;20.13;;
7150;SDS011;3617;48.836;9.172;2022-12-18T15:46:11;37.03;;;16.93;;
7150;SDS011;3617;48.836;9.172;2022-12-18T15:48:42;36.20;;;17.63;;
7150;SDS011;3617;48.836;9.172;2022-12-18T15:51:11;41.93;;;18.07;;
7150;SDS011;3617;48.836;9.172;2022-12-18T15:53:39;33.97;;;17.33;;
7150;SDS011;3617;48.836;9.172;2022-12-18T15:56:08;38.33;;;17.60;;
7150;SDS011;3617;48.836;9.172;2022-12-18T15:58:53;43.83;;;18.53;;
7150;SDS011;3617;48.836;9.172;2022-12-18T16:01:19;42.23;;;18.03;;
7150;SDS011;3617;48.836;9.172;2022-12-18T16:03:46;37.63;;;18.00;;
7150;SDS011;3617;48.836;9.172;2022-12-18T16:06:12;37.03;;;17.97;;
7150;SDS011;3617;48.836;9.172;2022-12-18T16:08:38;39.10;;;17.67;;
7150;SDS011;3617;48.836;9.172;2022-12-18T16:11:04;39.47;;;16.97;;
7150;SDS011;3617;48.836;9.172;2022-12-18T16:13:31;41.57;;;18.87;;
7150;SDS011;3617;48.836;9.172;2022-12-18T16:15:57;38.50;;;17.17;;
7150;SDS011;3617;48.836;9.172;2022-12-18T16:18:23;40.77;;;17.73;;
7150;SDS011;3617;48.836;9.172;2022-12-18T16:20:49;44.60;;;18.80;;
7150;SDS011;3617;48.836;9.172;2022-12-18T16:23:15;39.07;;;16.47;;
7150;SDS011;3617;48.836;9.172;2022-12-18T16:25:41;39.13;;;16.73;;
7150;SDS011;3617;48.836;9.172;2022-12-18T16:28:07;39.20;;;17.33;;
7150;SDS011;3617;48.836;9.172;2022-12-18T16:30:33;44.40;;;19.10;;
7150;SDS011;3617;48.836;9.172;2022-12-18T16:32:59;41.67;;;18.20;;
7150;SDS011;3617;48.836;9.172;2022-12-18T16:35:25;36.40;;;16.57;;
7150;SDS011;3617;48.836;9.172;2022-12-18T16:37:52;42.40;;;19.13;;